sensor_id;sensor_type;location;lat;lon;timestamp;P1;durP1;ratioP1;P2;durP2;ratioP2
53915;SDS011;39827;49.652;18.770;2023-05-08T00:02:20;706.72;;;648.45;;
53915;SDS011;39827;49.652;18.770;2023-05-08T00:04:46;692.65;;;636.50;;
53915;SDS011;39827;49.652;18.770;2023-05-08T00:07:11;725.78;;;666.17;;
53915;SDS011;39827;49.652;18.770;2023-05-08T00:09:36;703.20;;;645.22;;
53915;SDS011;39827;49.652;18.770;2023-05-08T00:12:02;681.45;;;626.20;;
53915;SDS011;39827;49.652;18.770;2023-05-08T00:14:27;604.88;;;555.25;;
53915;SDS011;39827;49.652;18.770;2023-05-08T00:16:53;713.17;;;654.83;;
53915;SDS011;39827;49.652;18.770;2023-05-08T00:19:18;732.20;;;672.47;;
53915;SDS011;39827;49.652;18.770;2023-05-08T00:21:43;689.88;;;633.45;;
53915;SDS011;39827;49.652;18.770;2023-05-08T00:24:09;739.65;;;679.38;;
53915;SDS011;39827;49.652;18.770;2023-05-08T00:26:34;712.47;;;654.08;;
53915;SDS011;39827;49.652;18.770;2023-05-08T00:29:00;721.58;;;662.10;;
53915;SDS011;39827;49.652;18.770;2023-05-08T00:31:25;692.97;;;636.00;;
53915;SDS011;39827;49.652;18.770;2023-05-08T00:33:51;657.03;;;603.95;;
53915;SDS011;39827;49.652;18.770;2023-05-08T00:36:16;702.00;;;644.58;;
53915;SDS011;39827;49.652;18.770;2023-05-08T00:38:42;705.47;;;648.80;;
53915;SDS011;39827;49.652;18.770;2023-05-08T00:41:07;752.95;;;691.63;;
53915;SDS011;39827;49.652;18.770;2023-05-08T00:43:32;737.15;;;677.10;;
53915;SDS011;39827;49.652;18.770;2023-05-08T00:45:59;695.78;;;640.83;;
53915;SDS011;39827;49.652;18.770;2023-05-08T00:48:29;730.38;;;671.00;;
53915;SDS011;39827;49.652;18.770;2023-05-08T00:53:24;735.67;;;675.35;;
53915;SDS011;39827;49.652;18.770;2023-05-08T00:55:51;732.45;;;673.28;;
53915;SDS011;39827;49.652;18.770;2023-05-08T00:58:16;737.63;;;678.25;;
53915;SDS011;39827;49.652;18.770;2023-05-08T01:00:44;746.88;;;686.75;;
53915;SDS011;39827;49.652;18.770;2023-05-08T01:03:11;743.17;;;684.05;;
53915;SDS011;39827;49.652;18.770;2023-05-08T01:05:37;727.65;;;670.28;;
53915;SDS011;39827;49.652;18.770;2023-05-08T01:08:04;744.13;;;685.58;;
53915;SDS011;39827;49.652;18.770;2023-05-08T01:10:47;712.03;;;655.70;;
53915;SDS011;39827;49.652;18.770;2023-05-08T01:13:39;714.67;;;657.40;;
53915;SDS011;39827;49.652;18.770;2023-05-08T01:21:30;674.88;;;621.67;;
53915;SDS011;39827;49.652;18.770;2023-05-08T01:24:29;750.40;;;691.07;;
53915;SDS011;39827;49.652;18.770;2023-05-08T01:32:38;730.75;;;672.53;;
53915;SDS011;39827;49.652;18.770;2023-05-08T01:37:34;677.33;;;623.53;;
53915;SDS011;39827;49.652;18.770;2023-05-08T01:45:24;752.67;;;693.83;;
53915;SDS011;39827;49.652;18.770;2023-05-08T01:48:03;693.90;;;638.53;;
53915;SDS011;39827;49.652;18.770;2023-05-08T01:50:34;713.60;;;655.92;;
53915;SDS011;39827;49.652;18.770;2023-05-08T01:53:06;763.20;;;701.97;;
53915;SDS011;39827;49.652;18.770;2023-05-08T01:55:36;745.80;;;686.65;;
53915;SDS011;39827;49.652;18.770;2023-05-08T01:58:09;710.53;;;654.28;;
53915;SDS011;39827;49.652;18.770;2023-05-08T02:00:37;743.67;;;684.42;;
53915;SDS011;39827;49.652;18.770;2023-05-08T02:03:04;764.70;;;703.80;;
53915;SDS011;39827;49.652;18.770;2023-05-08T02:05:30;752.38;;;693.05;;
53915;SDS011;39827;49.652;18.770;2023-05-08T02:07:57;698.58;;;643.25;;
53915;SDS011;39827;49.652;18.770;2023-05-08T02:10:25;749.72;;;689.97;;
53915;SDS011;39827;49.652;18.770;2023-05-08T02:12:53;748.15;;;688.13;;
53915;SDS011;39827;49.652;18.770;2023-05-08T02:15:19;747.28;;;687.63;;
53915;SDS011;39827;49.652;18.770;2023-05-08T02:17:47;724.85;;;667.25;;
53915;SDS011;39827;49.652;18.770;2023-05-08T02:20:14;712.33;;;654.80;;
53915;SDS011;39827;49.652;18.770;2023-05-08T02:22:40;702.47;;;646.17;;
53915;SDS011;39827;49.652;18.770;2023-05-08T02:25:07;745.10;;;685.80;;
53915;SDS011;39827;49.652;18.770;2023-05-08T02:27:38;719.65;;;661.92;;
53915;SDS011;39827;49.652;18.770;2023-05-08T02:30:07;743.90;;;684.95;;
53915;SDS011;39827;49.652;18.770;2023-05-08T02:32:35;765.72;;;704.67;;
53915;SDS011;39827;49.652;18.770;2023-05-08T02:35:00;732.55;;;674.13;;
53915;SDS011;39827;49.652;18.770;2023-05-08T02:37:27;750.88;;;692.17;;
53915;SDS011;39827;49.652;18.770;2023-05-08T02:39:54;746.63;;;687.92;;
53915;SDS011;39827;49.652;18.770;2023-05-08T02:42:22;734.15;;;675.72;;
53915;SDS011;39827;49.652;18.770;2023-05-08T02:44:47;764.67;;;703.72;;
53915;SDS011;39827;49.652;18.770;2023-05-08T02:47:14;737.22;;;679.15;;
53915;SDS011;39827;49.652;18.770;2023-05-08T02:49:45;742.17;;;683.95;;
53915;SDS011;39827;49.652;18.770;2023-05-08T02:52:17;748.50;;;688.35;;
53915;SDS011;39827;49.652;18.770;2023-05-08T03:00:30;739.95;;;680.22;;
53915;SDS011;39827;49.652;18.770;2023-05-08T03:03:08;763.78;;;701.22;;
53915;SDS011;39827;49.652;18.770;2023-05-08T03:05:41;719.42;;;659.65;;
53915;SDS011;39827;49.652;18.770;2023-05-08T03:08:13;741.33;;;681.30;;
53915;SDS011;39827;49.652;18.770;2023-05-08T03:10:42;721.20;;;664.03;;
53915;SDS011;39827;49.652;18.770;2023-05-08T03:13:10;746.80;;;687.00;;
53915;SDS011;39827;49.652;18.770;2023-05-08T03:18:14;756.10;;;695.40;;
53915;SDS011;39827;49.652;18.770;2023-05-08T03:20:44;760.88;;;699.67;;
53915;SDS011;39827;49.652;18.770;2023-05-08T03:23:12;748.80;;;688.13;;
53915;SDS011;39827;49.652;18.770;2023-05-08T03:25:40;676.88;;;622.92;;
53915;SDS011;39827;49.652;18.770;2023-05-08T03:28:07;731.38;;;672.70;;
53915;SDS011;39827;49.652;18.770;2023-05-08T03:30:37;742.70;;;683.70;;
53915;SDS011;39827;49.652;18.770;2023-05-08T03:33:04;701.28;;;644.88;;
53915;SDS011;39827;49.652;18.770;2023-05-08T03:35:33;610.92;;;560.83;;
53915;SDS011;39827;49.652;18.770;2023-05-08T03:38:01;655.53;;;602.67;;
53915;SDS011;39827;49.652;18.770;2023-05-08T03:40:27;685.65;;;630.88;;
53915;SDS011;39827;49.652;18.770;2023-05-08T03:42:52;729.15;;;671.00;;
53915;SDS011;39827;49.652;18.770;2023-05-08T03:45:19;689.05;;;633.15;;
53915;SDS011;39827;49.652;18.770;2023-05-08T03:47:45;732.45;;;673.50;;
53915;SDS011;39827;49.652;18.770;2023-05-08T03:50:12;725.83;;;667.92;;
53915;SDS011;39827;49.652;18.770;2023-05-08T03:52:37;717.85;;;660.65;;
53915;SDS011;39827;49.652;18.770;2023-05-08T03:55:03;688.78;;;633.60;;
53915;SDS011;39827;49.652;18.770;2023-05-08T03:57:33;711.25;;;654.00;;
53915;SDS011;39827;49.652;18.770;2023-05-08T04:00:09;716.17;;;659.65;;
53915;SDS011;39827;49.652;18.770;2023-05-08T04:05:53;702.00;;;645.83;;
53915;SDS011;39827;49.652;18.770;2023-05-08T04:08:08;707.38;;;651.67;;
53915;SDS011;39827;49.652;18.770;2023-05-08T04:10:45;711.15;;;654.10;;
53915;SDS011;39827;49.652;18.770;2023-05-08T04:13:17;703.42;;;646.40;;
53915;SDS011;39827;49.652;18.770;2023-05-08T04:15:50;742.83;;;683.15;;
53915;SDS011;39827;49.652;18.770;2023-05-08T04:18:17;654.03;;;601.67;;
53915;SDS011;39827;49.652;18.770;2023-05-08T04:20:52;718.22;;;661.92;;
53915;SDS011;39827;49.652;18.770;2023-05-08T04:23:20;715.80;;;659.15;;
53915;SDS011;39827;49.652;18.770;2023-05-08T04:25:47;740.05;;;681.88;;
53915;SDS011;39827;49.652;18.770;2023-05-08T04:28:15;643.80;;;591.83;;
53915;SDS011;39827;49.652;18.770;2023-05-08T04:30:42;605.35;;;556.03;;
53915;SDS011;39827;49.652;18.770;2023-05-08T04:33:09;650.47;;;598.85;;
53915;SDS011;39827;49.652;18.770;2023-05-08T04:35:35;614.97;;;565.72;;
53915;SDS011;39827;49.652;18.770;2023-05-08T04:38:01;541.80;;;497.55;;
53915;SDS011;39827;49.652;18.770;2023-05-08T04:40:26;578.05;;;530.47;;
53915;SDS011;39827;49.652;18.770;2023-05-08T04:42:52;587.03;;;539.00;;
53915;SDS011;39827;49.652;18.770;2023-05-08T04:45:18;592.80;;;544.20;;
53915;SDS011;39827;49.652;18.770;2023-05-08T04:47:43;631.78;;;580.08;;
53915;SDS011;39827;49.652;18.770;2023-05-08T04:50:09;546.70;;;501.42;;
53915;SDS011;39827;49.652;18.770;2023-05-08T04:52:35;573.47;;;526.25;;
53915;SDS011;39827;49.652;18.770;2023-05-08T04:55:00;564.97;;;518.15;;
53915;SDS011;39827;49.652;18.770;2023-05-08T04:57:26;639.95;;;586.60;;
53915;SDS011;39827;49.652;18.770;2023-05-08T04:59:51;641.65;;;588.85;;
53915;SDS011;39827;49.652;18.770;2023-05-08T05:02:16;682.65;;;627.88;;
53915;SDS011;39827;49.652;18.770;2023-05-08T05:04:42;539.25;;;494.85;;
53915;SDS011;39827;49.652;18.770;2023-05-08T05:07:07;507.40;;;465.83;;
53915;SDS011;39827;49.652;18.770;2023-05-08T05:09:33;607.78;;;556.90;;
53915;SDS011;39827;49.652;18.770;2023-05-08T05:12:03;600.15;;;549.70;;
53915;SDS011;39827;49.652;18.770;2023-05-08T05:14:29;553.38;;;506.52;;
53915;SDS011;39827;49.652;18.770;2023-05-08T05:16:55;622.88;;;572.40;;
53915;SDS011;39827;49.652;18.770;2023-05-08T05:19:21;570.65;;;523.90;;
53915;SDS011;39827;49.652;18.770;2023-05-08T05:21:46;552.70;;;507.25;;
53915;SDS011;39827;49.652;18.770;2023-05-08T05:24:11;692.22;;;637.33;;
53915;SDS011;39827;49.652;18.770;2023-05-08T05:26:37;554.83;;;509.08;;
53915;SDS011;39827;49.652;18.770;2023-05-08T05:29:02;525.42;;;482.00;;
53915;SDS011;39827;49.652;18.770;2023-05-08T05:31:28;576.58;;;528.75;;
53915;SDS011;39827;49.652;18.770;2023-05-08T05:33:54;574.75;;;527.50;;
53915;SDS011;39827;49.652;18.770;2023-05-08T05:36:20;577.95;;;530.08;;
53915;SDS011;39827;49.652;18.770;2023-05-08T05:38:45;573.33;;;525.63;;
53915;SDS011;39827;49.652;18.770;2023-05-08T05:41:11;569.00;;;522.53;;
53915;SDS011;39827;49.652;18.770;2023-05-08T05:43:36;569.13;;;521.88;;
53915;SDS011;39827;49.652;18.770;2023-05-08T05:46:05;536.85;;;492.95;;
53915;SDS011;39827;49.652;18.770;2023-05-08T05:48:31;558.42;;;512.03;;
53915;SDS011;39827;49.652;18.770;2023-05-08T05:50:57;622.90;;;572.90;;
53915;SDS011;39827;49.652;18.770;2023-05-08T05:53:22;568.03;;;522.33;;
53915;SDS011;39827;49.652;18.770;2023-05-08T05:55:48;589.80;;;542.58;;
53915;SDS011;39827;49.652;18.770;2023-05-08T05:58:13;600.47;;;552.40;;
53915;SDS011;39827;49.652;18.770;2023-05-08T06:00:40;597.33;;;550.10;;
53915;SDS011;39827;49.652;18.770;2023-05-08T06:03:06;577.35;;;531.20;;
53915;SDS011;39827;49.652;18.770;2023-05-08T06:05:31;720.10;;;664.53;;
53915;SDS011;39827;49.652;18.770;2023-05-08T06:07:57;625.42;;;576.45;;
53915;SDS011;39827;49.652;18.770;2023-05-08T06:10:23;681.35;;;627.95;;
53915;SDS011;39827;49.652;18.770;2023-05-08T06:12:48;702.05;;;647.60;;
53915;SDS011;39827;49.652;18.770;2023-05-08T06:15:14;650.92;;;599.67;;
53915;SDS011;39827;49.652;18.770;2023-05-08T06:17:39;740.03;;;681.42;;
53915;SDS011;39827;49.652;18.770;2023-05-08T06:20:05;737.95;;;679.58;;
53915;SDS011;39827;49.652;18.770;2023-05-08T06:22:32;692.15;;;638.45;;
53915;SDS011;39827;49.652;18.770;2023-05-08T06:24:58;693.72;;;639.40;;
53915;SDS011;39827;49.652;18.770;2023-05-08T06:27:23;725.97;;;670.63;;
53915;SDS011;39827;49.652;18.770;2023-05-08T06:29:50;788.20;;;726.65;;
53915;SDS011;39827;49.652;18.770;2023-05-08T06:32:17;672.45;;;619.85;;
53915;SDS011;39827;49.652;18.770;2023-05-08T06:34:43;733.20;;;677.92;;
53915;SDS011;39827;49.652;18.770;2023-05-08T06:37:08;737.00;;;680.90;;
53915;SDS011;39827;49.652;18.770;2023-05-08T06:39:34;741.58;;;683.95;;
53915;SDS011;39827;49.652;18.770;2023-05-08T06:41:59;751.45;;;692.75;;
53915;SDS011;39827;49.652;18.770;2023-05-08T06:44:25;765.30;;;704.47;;
53915;SDS011;39827;49.652;18.770;2023-05-08T06:46:50;790.67;;;728.42;;
53915;SDS011;39827;49.652;18.770;2023-05-08T06:49:15;743.65;;;685.35;;
53915;SDS011;39827;49.652;18.770;2023-05-08T06:51:41;715.05;;;658.92;;
53915;SDS011;39827;49.652;18.770;2023-05-08T06:54:06;724.15;;;667.88;;
53915;SDS011;39827;49.652;18.770;2023-05-08T06:56:33;751.90;;;694.17;;
53915;SDS011;39827;49.652;18.770;2023-05-08T06:58:59;744.38;;;688.33;;
53915;SDS011;39827;49.652;18.770;2023-05-08T07:01:25;748.70;;;692.28;;
53915;SDS011;39827;49.652;18.770;2023-05-08T07:03:50;743.97;;;687.95;;
53915;SDS011;39827;49.652;18.770;2023-05-08T07:06:15;774.00;;;715.85;;
53915;SDS011;39827;49.652;18.770;2023-05-08T07:08:41;782.13;;;723.42;;
53915;SDS011;39827;49.652;18.770;2023-05-08T07:11:06;751.63;;;695.95;;
53915;SDS011;39827;49.652;18.770;2023-05-08T07:13:34;598.72;;;554.70;;
53915;SDS011;39827;49.652;18.770;2023-05-08T07:15:59;530.42;;;491.92;;
53915;SDS011;39827;49.652;18.770;2023-05-08T07:18:25;500.65;;;465.50;;
53915;SDS011;39827;49.652;18.770;2023-05-08T07:20:50;443.60;;;412.38;;
53915;SDS011;39827;49.652;18.770;2023-05-08T07:23:16;390.88;;;363.15;;
53915;SDS011;39827;49.652;18.770;2023-05-08T07:25:42;439.92;;;406.20;;
53915;SDS011;39827;49.652;18.770;2023-05-08T07:28:07;484.13;;;445.38;;
53915;SDS011;39827;49.652;18.770;2023-05-08T07:30:33;487.10;;;447.90;;
53915;SDS011;39827;49.652;18.770;2023-05-08T07:32:58;591.78;;;545.33;;
53915;SDS011;39827;49.652;18.770;2023-05-08T07:35:23;616.08;;;568.42;;
53915;SDS011;39827;49.652;18.770;2023-05-08T07:37:49;642.50;;;594.35;;
53915;SDS011;39827;49.652;18.770;2023-05-08T07:40:14;668.80;;;619.75;;
53915;SDS011;39827;49.652;18.770;2023-05-08T07:42:40;661.47;;;613.58;;
53915;SDS011;39827;49.652;18.770;2023-05-08T07:45:07;704.17;;;654.88;;
53915;SDS011;39827;49.652;18.770;2023-05-08T07:47:33;649.85;;;604.22;;
53915;SDS011;39827;49.652;18.770;2023-05-08T07:49:59;607.33;;;565.15;;
53915;SDS011;39827;49.652;18.770;2023-05-08T07:52:25;578.50;;;538.30;;
53915;SDS011;39827;49.652;18.770;2023-05-08T07:54:50;468.13;;;436.63;;
53915;SDS011;39827;49.652;18.770;2023-05-08T07:57:16;516.83;;;481.33;;
53915;SDS011;39827;49.652;18.770;2023-05-08T07:59:41;678.88;;;632.47;;
53915;SDS011;39827;49.652;18.770;2023-05-08T08:02:06;603.05;;;560.88;;
53915;SDS011;39827;49.652;18.770;2023-05-08T08:04:32;414.63;;;386.60;;
53915;SDS011;39827;49.652;18.770;2023-05-08T08:06:57;384.42;;;359.00;;
53915;SDS011;39827;49.652;18.770;2023-05-08T08:09:23;369.27;;;344.40;;
53915;SDS011;39827;49.652;18.770;2023-05-08T08:11:48;365.83;;;341.95;;
53915;SDS011;39827;49.652;18.770;2023-05-08T08:14:14;343.30;;;321.33;;
53915;SDS011;39827;49.652;18.770;2023-05-08T08:16:40;408.90;;;381.83;;
53915;SDS011;39827;49.652;18.770;2023-05-08T08:19:06;431.77;;;403.30;;
53915;SDS011;39827;49.652;18.770;2023-05-08T08:21:32;412.52;;;385.33;;
53915;SDS011;39827;49.652;18.770;2023-05-08T08:23:58;455.50;;;425.35;;
53915;SDS011;39827;49.652;18.770;2023-05-08T08:26:23;329.92;;;308.48;;
53915;SDS011;39827;49.652;18.770;2023-05-08T08:28:49;350.23;;;327.67;;
53915;SDS011;39827;49.652;18.770;2023-05-08T08:31:15;377.10;;;351.58;;
53915;SDS011;39827;49.652;18.770;2023-05-08T08:33:41;278.60;;;260.90;;
53915;SDS011;39827;49.652;18.770;2023-05-08T08:36:13;310.70;;;291.17;;
53915;SDS011;39827;49.652;18.770;2023-05-08T08:38:40;478.48;;;446.50;;
53915;SDS011;39827;49.652;18.770;2023-05-08T08:41:05;368.50;;;344.42;;
53915;SDS011;39827;49.652;18.770;2023-05-08T08:43:31;437.45;;;408.30;;
53915;SDS011;39827;49.652;18.770;2023-05-08T08:45:56;491.58;;;458.75;;
53915;SDS011;39827;49.652;18.770;2023-05-08T08:48:24;390.48;;;364.77;;
53915;SDS011;39827;49.652;18.770;2023-05-08T08:50:52;333.98;;;312.60;;
53915;SDS011;39827;49.652;18.770;2023-05-08T08:53:27;265.40;;;248.38;;
53915;SDS011;39827;49.652;18.770;2023-05-08T08:55:59;403.25;;;376.13;;
53915;SDS011;39827;49.652;18.770;2023-05-08T08:58:27;312.35;;;292.17;;
53915;SDS011;39827;49.652;18.770;2023-05-08T09:03:24;78.65;;;74.10;;
53915;SDS011;39827;49.652;18.770;2023-05-08T09:05:50;98.18;;;92.53;;
53915;SDS011;39827;49.652;18.770;2023-05-08T09:08:17;141.40;;;133.05;;
53915;SDS011;39827;49.652;18.770;2023-05-08T09:10:42;124.22;;;117.07;;
53915;SDS011;39827;49.652;18.770;2023-05-08T09:13:08;93.45;;;87.90;;
53915;SDS011;39827;49.652;18.770;2023-05-08T09:15:33;108.95;;;102.03;;
53915;SDS011;39827;49.652;18.770;2023-05-08T09:18:02;76.18;;;71.22;;
53915;SDS011;39827;49.652;18.770;2023-05-08T09:20:28;106.30;;;100.20;;
53915;SDS011;39827;49.652;18.770;2023-05-08T09:22:53;110.32;;;103.72;;
53915;SDS011;39827;49.652;18.770;2023-05-08T09:25:20;347.35;;;323.90;;
53915;SDS011;39827;49.652;18.770;2023-05-08T09:27:45;87.47;;;82.38;;
53915;SDS011;39827;49.652;18.770;2023-05-08T09:30:11;76.63;;;72.00;;
53915;SDS011;39827;49.652;18.770;2023-05-08T09:32:39;94.60;;;89.15;;
53915;SDS011;39827;49.652;18.770;2023-05-08T09:35:06;98.45;;;92.50;;
53915;SDS011;39827;49.652;18.770;2023-05-08T09:37:32;102.65;;;96.72;;
53915;SDS011;39827;49.652;18.770;2023-05-08T09:40:20;89.38;;;84.07;;
53915;SDS011;39827;49.652;18.770;2023-05-08T09:42:47;83.68;;;78.63;;
53915;SDS011;39827;49.652;18.770;2023-05-08T09:45:29;120.13;;;112.75;;
53915;SDS011;39827;49.652;18.770;2023-05-08T09:50:21;92.35;;;86.95;;
53915;SDS011;39827;49.652;18.770;2023-05-08T09:52:47;106.82;;;100.65;;
53915;SDS011;39827;49.652;18.770;2023-05-08T09:55:14;96.75;;;91.18;;
53915;SDS011;39827;49.652;18.770;2023-05-08T09:57:50;105.13;;;99.18;;
53915;SDS011;39827;49.652;18.770;2023-05-08T10:00:20;104.80;;;98.80;;
53915;SDS011;39827;49.652;18.770;2023-05-08T10:02:54;110.35;;;103.88;;
53915;SDS011;39827;49.652;18.770;2023-05-08T10:05:30;127.63;;;119.82;;
53915;SDS011;39827;49.652;18.770;2023-05-08T10:07:58;108.97;;;102.60;;
53915;SDS011;39827;49.652;18.770;2023-05-08T10:10:42;100.32;;;94.53;;
53915;SDS011;39827;49.652;18.770;2023-05-08T10:13:07;109.35;;;103.15;;
53915;SDS011;39827;49.652;18.770;2023-05-08T10:15:33;92.78;;;87.35;;
53915;SDS011;39827;49.652;18.770;2023-05-08T10:18:03;103.43;;;97.30;;
53915;SDS011;39827;49.652;18.770;2023-05-08T10:20:33;91.68;;;86.15;;
53915;SDS011;39827;49.652;18.770;2023-05-08T10:23:00;87.38;;;81.55;;
53915;SDS011;39827;49.652;18.770;2023-05-08T10:25:31;83.70;;;78.85;;
53915;SDS011;39827;49.652;18.770;2023-05-08T10:28:04;113.32;;;106.57;;
53915;SDS011;39827;49.652;18.770;2023-05-08T10:30:35;99.45;;;93.43;;
53915;SDS011;39827;49.652;18.770;2023-05-08T10:33:04;105.00;;;98.72;;
53915;SDS011;39827;49.652;18.770;2023-05-08T10:35:33;112.15;;;105.57;;
53915;SDS011;39827;49.652;18.770;2023-05-08T10:38:00;105.63;;;99.55;;
53915;SDS011;39827;49.652;18.770;2023-05-08T10:40:27;93.20;;;87.63;;
53915;SDS011;39827;49.652;18.770;2023-05-08T10:42:53;84.88;;;79.65;;
53915;SDS011;39827;49.652;18.770;2023-05-08T10:45:19;71.25;;;66.72;;
53915;SDS011;39827;49.652;18.770;2023-05-08T10:53:30;258.73;;;242.10;;
53915;SDS011;39827;49.652;18.770;2023-05-08T10:56:03;86.28;;;81.22;;
53915;SDS011;39827;49.652;18.770;2023-05-08T11:03:24;90.60;;;85.07;;
53915;SDS011;39827;49.652;18.770;2023-05-08T11:05:51;80.22;;;75.55;;
53915;SDS011;39827;49.652;18.770;2023-05-08T11:08:22;96.40;;;90.72;;
53915;SDS011;39827;49.652;18.770;2023-05-08T11:10:57;94.05;;;88.63;;
53915;SDS011;39827;49.652;18.770;2023-05-08T11:13:36;105.95;;;99.80;;
53915;SDS011;39827;49.652;18.770;2023-05-08T11:16:02;93.88;;;88.45;;
53915;SDS011;39827;49.652;18.770;2023-05-08T11:18:28;109.13;;;102.55;;
53915;SDS011;39827;49.652;18.770;2023-05-08T11:21:03;89.70;;;84.35;;
53915;SDS011;39827;49.652;18.770;2023-05-08T11:23:33;97.35;;;91.10;;
53915;SDS011;39827;49.652;18.770;2023-05-08T11:28:31;63.55;;;59.78;;
53915;SDS011;39827;49.652;18.770;2023-05-08T11:31:03;67.60;;;63.53;;
53915;SDS011;39827;49.652;18.770;2023-05-08T11:33:34;74.40;;;69.90;;
53915;SDS011;39827;49.652;18.770;2023-05-08T11:36:20;82.63;;;77.40;;
53915;SDS011;39827;49.652;18.770;2023-05-08T11:39:06;91.80;;;86.38;;
53915;SDS011;39827;49.652;18.770;2023-05-08T11:41:36;75.22;;;70.72;;
53915;SDS011;39827;49.652;18.770;2023-05-08T11:46:42;56.97;;;53.33;;
53915;SDS011;39827;49.652;18.770;2023-05-08T11:49:15;64.13;;;60.33;;
53915;SDS011;39827;49.652;18.770;2023-05-08T11:51:45;63.20;;;59.38;;
53915;SDS011;39827;49.652;18.770;2023-05-08T11:54:13;128.85;;;121.22;;
53915;SDS011;39827;49.652;18.770;2023-05-08T11:56:41;86.68;;;81.63;;
53915;SDS011;39827;49.652;18.770;2023-05-08T11:59:07;88.35;;;83.20;;
53915;SDS011;39827;49.652;18.770;2023-05-08T12:01:33;73.78;;;69.38;;
53915;SDS011;39827;49.652;18.770;2023-05-08T12:04:06;129.10;;;121.38;;
53915;SDS011;39827;49.652;18.770;2023-05-08T12:06:37;174.85;;;161.55;;
53915;SDS011;39827;49.652;18.770;2023-05-08T12:09:11;57.60;;;53.85;;
53915;SDS011;39827;49.652;18.770;2023-05-08T12:11:37;172.70;;;161.95;;
53915;SDS011;39827;49.652;18.770;2023-05-08T12:14:05;523.47;;;487.33;;
53915;SDS011;39827;49.652;18.770;2023-05-08T12:16:33;226.48;;;212.30;;
53915;SDS011;39827;49.652;18.770;2023-05-08T12:19:00;130.68;;;121.95;;
53915;SDS011;39827;49.652;18.770;2023-05-08T12:21:25;226.32;;;211.50;;
53915;SDS011;39827;49.652;18.770;2023-05-08T12:23:52;398.48;;;371.77;;
53915;SDS011;39827;49.652;18.770;2023-05-08T12:26:19;184.10;;;171.32;;
53915;SDS011;39827;49.652;18.770;2023-05-08T12:28:45;514.22;;;478.67;;
53915;SDS011;39827;49.652;18.770;2023-05-08T12:31:12;579.47;;;538.67;;
53915;SDS011;39827;49.652;18.770;2023-05-08T12:33:37;433.20;;;403.88;;
53915;SDS011;39827;49.652;18.770;2023-05-08T12:36:03;340.08;;;317.50;;
53915;SDS011;39827;49.652;18.770;2023-05-08T12:38:31;587.92;;;546.72;;
53915;SDS011;39827;49.652;18.770;2023-05-08T12:40:56;400.30;;;373.63;;
53915;SDS011;39827;49.652;18.770;2023-05-08T12:43:45;367.60;;;343.75;;
53915;SDS011;39827;49.652;18.770;2023-05-08T12:46:10;419.27;;;391.05;;
53915;SDS011;39827;49.652;18.770;2023-05-08T12:48:38;240.02;;;224.88;;
53915;SDS011;39827;49.652;18.770;2023-05-08T12:51:03;249.32;;;233.70;;
53915;SDS011;39827;49.652;18.770;2023-05-08T12:53:30;432.35;;;403.45;;
53915;SDS011;39827;49.652;18.770;2023-05-08T12:55:57;518.88;;;483.15;;
53915;SDS011;39827;49.652;18.770;2023-05-08T12:58:27;379.70;;;354.80;;
53915;SDS011;39827;49.652;18.770;2023-05-08T13:01:09;442.27;;;412.63;;
53915;SDS011;39827;49.652;18.770;2023-05-08T13:03:37;451.48;;;420.20;;
53915;SDS011;39827;49.652;18.770;2023-05-08T13:06:03;597.17;;;555.72;;
53915;SDS011;39827;49.652;18.770;2023-05-08T13:08:30;506.77;;;472.38;;
53915;SDS011;39827;49.652;18.770;2023-05-08T13:11:03;515.10;;;479.45;;
53915;SDS011;39827;49.652;18.770;2023-05-08T13:13:30;464.52;;;433.17;;
53915;SDS011;39827;49.652;18.770;2023-05-08T13:16:03;566.88;;;527.33;;
53915;SDS011;39827;49.652;18.770;2023-05-08T13:18:31;392.90;;;366.60;;
53915;SDS011;39827;49.652;18.770;2023-05-08T13:20:57;460.50;;;429.40;;
53915;SDS011;39827;49.652;18.770;2023-05-08T13:23:23;563.45;;;524.00;;
53915;SDS011;39827;49.652;18.770;2023-05-08T13:25:49;432.15;;;402.88;;
53915;SDS011;39827;49.652;18.770;2023-05-08T13:28:15;469.40;;;437.45;;
53915;SDS011;39827;49.652;18.770;2023-05-08T13:30:40;572.42;;;532.50;;
53915;SDS011;39827;49.652;18.770;2023-05-08T13:33:06;386.95;;;361.48;;
53915;SDS011;39827;49.652;18.770;2023-05-08T13:35:32;510.27;;;475.30;;
53915;SDS011;39827;49.652;18.770;2023-05-08T13:37:58;485.65;;;452.20;;
53915;SDS011;39827;49.652;18.770;2023-05-08T13:40:24;629.22;;;584.88;;
53915;SDS011;39827;49.652;18.770;2023-05-08T13:42:50;539.20;;;501.92;;
53915;SDS011;39827;49.652;18.770;2023-05-08T13:45:15;522.00;;;486.20;;
53915;SDS011;39827;49.652;18.770;2023-05-08T13:47:43;426.65;;;398.13;;
53915;SDS011;39827;49.652;18.770;2023-05-08T13:50:20;498.88;;;464.85;;
53915;SDS011;39827;49.652;18.770;2023-05-08T13:52:46;524.40;;;488.17;;
53915;SDS011;39827;49.652;18.770;2023-05-08T13:55:12;612.35;;;570.05;;
53915;SDS011;39827;49.652;18.770;2023-05-08T13:57:38;430.42;;;401.20;;
53915;SDS011;39827;49.652;18.770;2023-05-08T14:00:04;519.85;;;483.83;;
53915;SDS011;39827;49.652;18.770;2023-05-08T14:02:30;500.30;;;466.10;;
53915;SDS011;39827;49.652;18.770;2023-05-08T14:04:56;586.60;;;545.58;;
53915;SDS011;39827;49.652;18.770;2023-05-08T14:07:21;335.92;;;314.15;;
53915;SDS011;39827;49.652;18.770;2023-05-08T14:09:47;607.45;;;565.17;;
53915;SDS011;39827;49.652;18.770;2023-05-08T14:12:12;603.22;;;561.28;;
53915;SDS011;39827;49.652;18.770;2023-05-08T14:14:38;588.35;;;547.00;;
53915;SDS011;39827;49.652;18.770;2023-05-08T14:17:34;368.95;;;344.13;;
53915;SDS011;39827;49.652;18.770;2023-05-08T14:20:00;442.10;;;412.08;;
53915;SDS011;39827;49.652;18.770;2023-05-08T14:22:25;432.63;;;403.52;;
53915;SDS011;39827;49.652;18.770;2023-05-08T14:24:50;538.13;;;501.20;;
53915;SDS011;39827;49.652;18.770;2023-05-08T14:27:17;614.08;;;570.92;;
53915;SDS011;39827;49.652;18.770;2023-05-08T14:29:42;538.30;;;501.02;;
53915;SDS011;39827;49.652;18.770;2023-05-08T14:32:08;398.73;;;372.33;;
53915;SDS011;39827;49.652;18.770;2023-05-08T14:34:35;632.70;;;588.20;;
53915;SDS011;39827;49.652;18.770;2023-05-08T14:37:00;536.67;;;499.52;;
53915;SDS011;39827;49.652;18.770;2023-05-08T14:39:26;565.75;;;526.47;;
53915;SDS011;39827;49.652;18.770;2023-05-08T14:41:51;619.38;;;575.85;;
53915;SDS011;39827;49.652;18.770;2023-05-08T14:44:17;625.15;;;581.22;;
53915;SDS011;39827;49.652;18.770;2023-05-08T14:46:42;581.28;;;540.08;;